sensor_id;sensor_type;location;lat;lon;timestamp;P1;durP1;ratioP1;P2;durP2;ratioP2
23310;SDS011;11828;51.508;18.118;2022-09-30T00:00:20;232.90;;;91.27;;
23310;SDS011;11828;51.508;18.118;2022-09-30T00:03:07;218.60;;;92.00;;
23310;SDS011;11828;51.508;18.118;2022-09-30T00:05:33;220.77;;;92.35;;
23310;SDS011;11828;51.508;18.118;2022-09-30T00:08:00;227.95;;;93.20;;
23310;SDS011;11828;51.508;18.118;2022-09-30T00:10:26;218.77;;;89.65;;
23310;SDS011;11828;51.508;18.118;2022-09-30T00:12:52;228.27;;;91.18;;
23310;SDS011;11828;51.508;18.118;2022-09-30T00:15:18;220.07;;;91.67;;
23310;SDS011;11828;51.508;18.118;2022-09-30T00:17:45;217.30;;;90.57;;
23310;SDS011;11828;51.508;18.118;2022-09-30T00:20:11;216.13;;;91.68;;
23310;SDS011;11828;51.508;18.118;2022-09-30T00:22:39;216.27;;;92.70;;
23310;SDS011;11828;51.508;18.118;2022-09-30T00:25:05;218.10;;;90.20;;
23310;SDS011;11828;51.508;18.118;2022-09-30T00:27:32;218.43;;;92.00;;
23310;SDS011;11828;51.508;18.118;2022-09-30T00:29:58;254.23;;;127.38;;
23310;SDS011;11828;51.508;18.118;2022-09-30T00:32:24;222.55;;;93.05;;
23310;SDS011;11828;51.508;18.118;2022-09-30T00:34:50;212.43;;;90.30;;
23310;SDS011;11828;51.508;18.118;2022-09-30T00:37:16;216.13;;;90.30;;
23310;SDS011;11828;51.508;18.118;2022-09-30T00:39:43;258.27;;;138.98;;
23310;SDS011;11828;51.508;18.118;2022-09-30T00:42:10;215.55;;;90.63;;
23310;SDS011;11828;51.508;18.118;2022-09-30T00:44:56;214.05;;;89.78;;
23310;SDS011;11828;51.508;18.118;2022-09-30T00:47:34;229.27;;;92.45;;
23310;SDS011;11828;51.508;18.118;2022-09-30T00:50:25;266.25;;;135.68;;
23310;SDS011;11828;51.508;18.118;2022-09-30T00:53:15;220.10;;;99.13;;
23310;SDS011;11828;51.508;18.118;2022-09-30T00:58:24;224.57;;;100.75;;
23310;SDS011;11828;51.508;18.118;2022-09-30T01:00:54;226.20;;;100.75;;
23310;SDS011;11828;51.508;18.118;2022-09-30T01:03:22;232.00;;;103.68;;
23310;SDS011;11828;51.508;18.118;2022-09-30T01:05:49;231.32;;;103.32;;
23310;SDS011;11828;51.508;18.118;2022-09-30T01:08:16;230.63;;;103.88;;
23310;SDS011;11828;51.508;18.118;2022-09-30T01:10:45;231.32;;;101.53;;
23310;SDS011;11828;51.508;18.118;2022-09-30T01:13:11;228.73;;;101.60;;
23310;SDS011;11828;51.508;18.118;2022-09-30T01:15:43;218.80;;;97.03;;
23310;SDS011;11828;51.508;18.118;2022-09-30T01:18:28;220.35;;;97.00;;
23310;SDS011;11828;51.508;18.118;2022-09-30T01:26:57;255.60;;;134.43;;
23310;SDS011;11828;51.508;18.118;2022-09-30T01:35:43;307.98;;;161.07;;
23310;SDS011;11828;51.508;18.118;2022-09-30T01:41:32;248.20;;;107.18;;
23310;SDS011;11828;51.508;18.118;2022-09-30T01:44:47;236.35;;;113.32;;
23310;SDS011;11828;51.508;18.118;2022-09-30T01:47:40;211.70;;;95.65;;
23310;SDS011;11828;51.508;18.118;2022-09-30T01:53:03;214.95;;;93.68;;
23310;SDS011;11828;51.508;18.118;2022-09-30T01:55:46;205.68;;;93.47;;
23310;SDS011;11828;51.508;18.118;2022-09-30T01:58:44;222.18;;;97.32;;
23310;SDS011;11828;51.508;18.118;2022-09-30T02:01:26;221.63;;;95.13;;
23310;SDS011;11828;51.508;18.118;2022-09-30T02:04:46;253.80;;;112.30;;
23310;SDS011;11828;51.508;18.118;2022-09-30T02:07:04;263.90;;;119.80;;
23310;SDS011;11828;51.508;18.118;2022-09-30T02:09:38;301.52;;;178.60;;
23310;SDS011;11828;51.508;18.118;2022-09-30T02:12:37;271.95;;;148.40;;
23310;SDS011;11828;51.508;18.118;2022-09-30T02:15:14;235.68;;;106.18;;
23310;SDS011;11828;51.508;18.118;2022-09-30T02:17:55;229.02;;;108.13;;
23310;SDS011;11828;51.508;18.118;2022-09-30T02:20:32;214.07;;;100.18;;
23310;SDS011;11828;51.508;18.118;2022-09-30T02:23:08;210.57;;;93.38;;
23310;SDS011;11828;51.508;18.118;2022-09-30T02:26:06;208.55;;;93.45;;
23310;SDS011;11828;51.508;18.118;2022-09-30T02:28:48;212.48;;;96.45;;
23310;SDS011;11828;51.508;18.118;2022-09-30T02:31:23;229.88;;;104.50;;
23310;SDS011;11828;51.508;18.118;2022-09-30T02:34:04;229.90;;;103.78;;
23310;SDS011;11828;51.508;18.118;2022-09-30T02:39:15;216.82;;;96.75;;
23310;SDS011;11828;51.508;18.118;2022-09-30T02:41:52;219.25;;;96.95;;
23310;SDS011;11828;51.508;18.118;2022-09-30T02:44:28;218.07;;;95.13;;
23310;SDS011;11828;51.508;18.118;2022-09-30T02:47:02;217.32;;;97.47;;
23310;SDS011;11828;51.508;18.118;2022-09-30T02:58:57;215.45;;;94.60;;
23310;SDS011;11828;51.508;18.118;2022-09-30T03:01:23;211.70;;;94.75;;
23310;SDS011;11828;51.508;18.118;2022-09-30T03:03:53;213.20;;;95.03;;
23310;SDS011;11828;51.508;18.118;2022-09-30T03:06:24;212.68;;;93.85;;
23310;SDS011;11828;51.508;18.118;2022-09-30T03:08:52;206.75;;;91.70;;
23310;SDS011;11828;51.508;18.118;2022-09-30T03:11:21;205.35;;;91.85;;
23310;SDS011;11828;51.508;18.118;2022-09-30T03:23:02;217.25;;;94.28;;
23310;SDS011;11828;51.508;18.118;2022-09-30T03:29:00;207.88;;;91.95;;
23310;SDS011;11828;51.508;18.118;2022-09-30T03:35:05;219.90;;;93.70;;
23310;SDS011;11828;51.508;18.118;2022-09-30T03:40:33;211.70;;;93.53;;
23310;SDS011;11828;51.508;18.118;2022-09-30T03:43:20;206.85;;;93.03;;
23310;SDS011;11828;51.508;18.118;2022-09-30T03:46:13;208.75;;;93.93;;
23310;SDS011;11828;51.508;18.118;2022-09-30T03:48:47;211.55;;;93.57;;
23310;SDS011;11828;51.508;18.118;2022-09-30T03:51:17;213.05;;;94.50;;
23310;SDS011;11828;51.508;18.118;2022-09-30T03:53:43;212.65;;;94.10;;
23310;SDS011;11828;51.508;18.118;2022-09-30T03:56:13;203.63;;;91.65;;
23310;SDS011;11828;51.508;18.118;2022-09-30T03:58:41;224.65;;;95.43;;
23310;SDS011;11828;51.508;18.118;2022-09-30T04:01:11;208.82;;;92.82;;
23310;SDS011;11828;51.508;18.118;2022-09-30T04:03:49;214.00;;;96.03;;
23310;SDS011;11828;51.508;18.118;2022-09-30T04:06:17;208.70;;;92.10;;
23310;SDS011;11828;51.508;18.118;2022-09-30T04:08:46;214.77;;;87.25;;
23310;SDS011;11828;51.508;18.118;2022-09-30T04:11:12;215.02;;;87.05;;
23310;SDS011;11828;51.508;18.118;2022-09-30T04:13:38;216.60;;;87.50;;
23310;SDS011;11828;51.508;18.118;2022-09-30T04:16:05;219.88;;;88.45;;
23310;SDS011;11828;51.508;18.118;2022-09-30T04:18:35;211.50;;;85.72;;
23310;SDS011;11828;51.508;18.118;2022-09-30T04:21:06;212.70;;;86.80;;
23310;SDS011;11828;51.508;18.118;2022-09-30T04:23:38;211.70;;;88.30;;
23310;SDS011;11828;51.508;18.118;2022-09-30T04:26:06;218.10;;;87.38;;
23310;SDS011;11828;51.508;18.118;2022-09-30T04:28:36;212.52;;;84.70;;
23310;SDS011;11828;51.508;18.118;2022-09-30T04:31:02;219.25;;;86.82;;
23310;SDS011;11828;51.508;18.118;2022-09-30T04:33:29;220.23;;;87.07;;
23310;SDS011;11828;51.508;18.118;2022-09-30T04:35:57;221.65;;;87.15;;
23310;SDS011;11828;51.508;18.118;2022-09-30T04:38:24;218.00;;;87.35;;
23310;SDS011;11828;51.508;18.118;2022-09-30T04:40:51;214.57;;;88.47;;
23310;SDS011;11828;51.508;18.118;2022-09-30T04:43:21;228.38;;;94.30;;
23310;SDS011;11828;51.508;18.118;2022-09-30T04:45:49;226.02;;;94.03;;
23310;SDS011;11828;51.508;18.118;2022-09-30T04:48:16;221.95;;;91.90;;
23310;SDS011;11828;51.508;18.118;2022-09-30T04:50:44;230.75;;;92.50;;
23310;SDS011;11828;51.508;18.118;2022-09-30T04:53:11;240.10;;;94.38;;
23310;SDS011;11828;51.508;18.118;2022-09-30T04:55:39;231.02;;;91.63;;
23310;SDS011;11828;51.508;18.118;2022-09-30T04:58:06;219.20;;;89.43;;
23310;SDS011;11828;51.508;18.118;2022-09-30T05:00:35;224.35;;;90.13;;
23310;SDS011;11828;51.508;18.118;2022-09-30T05:03:02;221.57;;;90.78;;
23310;SDS011;11828;51.508;18.118;2022-09-30T05:05:29;222.90;;;89.35;;
23310;SDS011;11828;51.508;18.118;2022-09-30T05:08:01;215.27;;;87.85;;
23310;SDS011;11828;51.508;18.118;2022-09-30T05:10:28;224.27;;;88.28;;
23310;SDS011;11828;51.508;18.118;2022-09-30T05:12:55;215.20;;;87.43;;
23310;SDS011;11828;51.508;18.118;2022-09-30T05:15:22;216.63;;;87.07;;
23310;SDS011;11828;51.508;18.118;2022-09-30T05:17:49;222.90;;;92.13;;
23310;SDS011;11828;51.508;18.118;2022-09-30T05:20:16;241.18;;;102.75;;
23310;SDS011;11828;51.508;18.118;2022-09-30T05:22:42;245.82;;;105.60;;
23310;SDS011;11828;51.508;18.118;2022-09-30T05:25:08;253.90;;;106.90;;
23310;SDS011;11828;51.508;18.118;2022-09-30T05:27:35;258.38;;;111.40;;
23310;SDS011;11828;51.508;18.118;2022-09-30T05:30:01;237.00;;;96.47;;
23310;SDS011;11828;51.508;18.118;2022-09-30T05:32:28;243.90;;;103.65;;
23310;SDS011;11828;51.508;18.118;2022-09-30T05:34:55;252.52;;;101.43;;
23310;SDS011;11828;51.508;18.118;2022-09-30T05:37:21;243.93;;;100.13;;
23310;SDS011;11828;51.508;18.118;2022-09-30T05:39:47;232.30;;;98.13;;
23310;SDS011;11828;51.508;18.118;2022-09-30T05:42:13;223.13;;;90.30;;
23310;SDS011;11828;51.508;18.118;2022-09-30T05:44:40;229.98;;;92.32;;
23310;SDS011;11828;51.508;18.118;2022-09-30T05:47:05;233.25;;;98.60;;
23310;SDS011;11828;51.508;18.118;2022-09-30T05:49:35;229.82;;;96.63;;
23310;SDS011;11828;51.508;18.118;2022-09-30T05:52:01;228.35;;;94.72;;
23310;SDS011;11828;51.508;18.118;2022-09-30T05:54:27;236.38;;;96.10;;
23310;SDS011;11828;51.508;18.118;2022-09-30T05:56:53;233.95;;;96.72;;
23310;SDS011;11828;51.508;18.118;2022-09-30T05:59:19;243.70;;;98.68;;
23310;SDS011;11828;51.508;18.118;2022-09-30T06:01:45;246.15;;;101.53;;
23310;SDS011;11828;51.508;18.118;2022-09-30T06:04:11;234.48;;;97.43;;
23310;SDS011;11828;51.508;18.118;2022-09-30T06:06:38;251.65;;;99.20;;
23310;SDS011;11828;51.508;18.118;2022-09-30T06:09:04;244.48;;;98.25;;
23310;SDS011;11828;51.508;18.118;2022-09-30T06:11:30;236.40;;;94.38;;
23310;SDS011;11828;51.508;18.118;2022-09-30T06:13:56;234.52;;;94.72;;
23310;SDS011;11828;51.508;18.118;2022-09-30T06:16:22;234.45;;;93.90;;
23310;SDS011;11828;51.508;18.118;2022-09-30T06:18:48;223.95;;;90.95;;
23310;SDS011;11828;51.508;18.118;2022-09-30T06:21:15;218.85;;;87.50;;
23310;SDS011;11828;51.508;18.118;2022-09-30T06:23:42;226.15;;;89.00;;
23310;SDS011;11828;51.508;18.118;2022-09-30T06:26:09;221.85;;;88.80;;
23310;SDS011;11828;51.508;18.118;2022-09-30T06:28:39;220.40;;;90.97;;
23310;SDS011;11828;51.508;18.118;2022-09-30T06:31:06;233.55;;;91.50;;
23310;SDS011;11828;51.508;18.118;2022-09-30T06:33:32;244.63;;;97.38;;
23310;SDS011;11828;51.508;18.118;2022-09-30T06:35:58;245.93;;;99.95;;
23310;SDS011;11828;51.508;18.118;2022-09-30T06:38:29;256.05;;;102.00;;
23310;SDS011;11828;51.508;18.118;2022-09-30T06:41:04;242.02;;;99.28;;
23310;SDS011;11828;51.508;18.118;2022-09-30T06:43:31;231.32;;;94.85;;
23310;SDS011;11828;51.508;18.118;2022-09-30T06:45:57;254.35;;;98.93;;
23310;SDS011;11828;51.508;18.118;2022-09-30T06:48:23;235.25;;;94.35;;
23310;SDS011;11828;51.508;18.118;2022-09-30T06:50:49;231.32;;;90.53;;
23310;SDS011;11828;51.508;18.118;2022-09-30T06:53:20;240.70;;;91.07;;
23310;SDS011;11828;51.508;18.118;2022-09-30T06:55:46;243.48;;;95.50;;
23310;SDS011;11828;51.508;18.118;2022-09-30T06:58:13;250.30;;;95.15;;
23310;SDS011;11828;51.508;18.118;2022-09-30T07:00:40;249.38;;;96.30;;
23310;SDS011;11828;51.508;18.118;2022-09-30T07:03:08;234.10;;;91.75;;
23310;SDS011;11828;51.508;18.118;2022-09-30T07:05:59;246.13;;;92.80;;
23310;SDS011;11828;51.508;18.118;2022-09-30T07:08:29;240.02;;;95.15;;
23310;SDS011;11828;51.508;18.118;2022-09-30T07:10:57;236.75;;;94.18;;
23310;SDS011;11828;51.508;18.118;2022-09-30T07:13:24;236.63;;;95.03;;
23310;SDS011;11828;51.508;18.118;2022-09-30T07:15:51;263.00;;;101.03;;
23310;SDS011;11828;51.508;18.118;2022-09-30T07:18:22;256.08;;;97.25;;
23310;SDS011;11828;51.508;18.118;2022-09-30T07:20:50;262.13;;;100.53;;
23310;SDS011;11828;51.508;18.118;2022-09-30T07:23:17;242.43;;;95.97;;
23310;SDS011;11828;51.508;18.118;2022-09-30T07:25:57;243.43;;;96.10;;
23310;SDS011;11828;51.508;18.118;2022-09-30T07:28:27;238.07;;;92.10;;
23310;SDS011;11828;51.508;18.118;2022-09-30T07:30:58;235.77;;;90.90;;
23310;SDS011;11828;51.508;18.118;2022-09-30T07:33:27;243.68;;;92.95;;
23310;SDS011;11828;51.508;18.118;2022-09-30T07:35:56;231.68;;;90.03;;
23310;SDS011;11828;51.508;18.118;2022-09-30T07:38:24;225.27;;;88.55;;
23310;SDS011;11828;51.508;18.118;2022-09-30T07:40:57;229.90;;;89.95;;
23310;SDS011;11828;51.508;18.118;2022-09-30T07:43:28;226.82;;;88.47;;
23310;SDS011;11828;51.508;18.118;2022-09-30T07:46:06;233.02;;;89.90;;
23310;SDS011;11828;51.508;18.118;2022-09-30T07:48:37;229.25;;;87.75;;
23310;SDS011;11828;51.508;18.118;2022-09-30T07:51:09;219.90;;;86.70;;
23310;SDS011;11828;51.508;18.118;2022-09-30T07:53:39;228.68;;;89.47;;
23310;SDS011;11828;51.508;18.118;2022-09-30T07:56:07;225.57;;;87.80;;
23310;SDS011;11828;51.508;18.118;2022-09-30T07:58:34;229.57;;;88.03;;
23310;SDS011;11828;51.508;18.118;2022-09-30T08:01:01;239.73;;;90.70;;
23310;SDS011;11828;51.508;18.118;2022-09-30T08:03:31;226.65;;;85.78;;
23310;SDS011;11828;51.508;18.118;2022-09-30T08:06:10;231.90;;;89.30;;
23310;SDS011;11828;51.508;18.118;2022-09-30T08:08:40;227.60;;;87.40;;
23310;SDS011;11828;51.508;18.118;2022-09-30T08:11:09;227.45;;;89.03;;
23310;SDS011;11828;51.508;18.118;2022-09-30T08:13:36;227.65;;;87.88;;
23310;SDS011;11828;51.508;18.118;2022-09-30T08:16:03;232.23;;;87.28;;
23310;SDS011;11828;51.508;18.118;2022-09-30T08:18:29;227.68;;;86.20;;
23310;SDS011;11828;51.508;18.118;2022-09-30T08:20:55;226.70;;;85.65;;
23310;SDS011;11828;51.508;18.118;2022-09-30T08:23:21;229.63;;;87.72;;
23310;SDS011;11828;51.508;18.118;2022-09-30T08:25:48;229.82;;;88.00;;
23310;SDS011;11828;51.508;18.118;2022-09-30T08:28:14;226.82;;;86.35;;
23310;SDS011;11828;51.508;18.118;2022-09-30T08:30:42;229.27;;;86.13;;
23310;SDS011;11828;51.508;18.118;2022-09-30T08:33:08;227.98;;;86.15;;
23310;SDS011;11828;51.508;18.118;2022-09-30T08:35:34;227.48;;;86.60;;
23310;SDS011;11828;51.508;18.118;2022-09-30T08:38:01;223.98;;;86.80;;
23310;SDS011;11828;51.508;18.118;2022-09-30T08:40:31;231.40;;;87.00;;
23310;SDS011;11828;51.508;18.118;2022-09-30T08:43:05;224.65;;;85.93;;
23310;SDS011;11828;51.508;18.118;2022-09-30T08:48:41;226.02;;;86.97;;
23310;SDS011;11828;51.508;18.118;2022-09-30T08:54:18;232.43;;;88.13;;
23310;SDS011;11828;51.508;18.118;2022-09-30T08:56:53;235.45;;;86.90;;
23310;SDS011;11828;51.508;18.118;2022-09-30T09:02:08;230.32;;;88.25;;
23310;SDS011;11828;51.508;18.118;2022-09-30T09:04:49;226.85;;;87.45;;
23310;SDS011;11828;51.508;18.118;2022-09-30T09:24:16;225.32;;;84.38;;
23310;SDS011;11828;51.508;18.118;2022-09-30T09:26:45;219.88;;;83.30;;
23310;SDS011;11828;51.508;18.118;2022-09-30T09:31:47;221.38;;;84.00;;
23310;SDS011;11828;51.508;18.118;2022-09-30T09:34:13;222.60;;;82.80;;
23310;SDS011;11828;51.508;18.118;2022-09-30T09:39:40;229.10;;;86.03;;
23310;SDS011;11828;51.508;18.118;2022-09-30T09:42:25;230.35;;;87.25;;
23310;SDS011;11828;51.508;18.118;2022-09-30T09:47:54;215.30;;;81.75;;
23310;SDS011;11828;51.508;18.118;2022-09-30T09:50:25;224.52;;;82.95;;
23310;SDS011;11828;51.508;18.118;2022-09-30T09:56:10;218.88;;;81.82;;
23310;SDS011;11828;51.508;18.118;2022-09-30T10:01:44;216.80;;;81.65;;
23310;SDS011;11828;51.508;18.118;2022-09-30T10:07:00;220.75;;;82.78;;
23310;SDS011;11828;51.508;18.118;2022-09-30T10:09:39;220.80;;;84.15;;
23310;SDS011;11828;51.508;18.118;2022-09-30T10:14:37;215.23;;;82.10;;
23310;SDS011;11828;51.508;18.118;2022-09-30T10:19:59;230.52;;;83.63;;
23310;SDS011;11828;51.508;18.118;2022-09-30T10:22:34;220.43;;;84.20;;
23310;SDS011;11828;51.508;18.118;2022-09-30T10:27:53;225.82;;;84.10;;
23310;SDS011;11828;51.508;18.118;2022-09-30T10:38:33;227.63;;;79.95;;
23310;SDS011;11828;51.508;18.118;2022-09-30T10:41:02;222.43;;;80.65;;
23310;SDS011;11828;51.508;18.118;2022-09-30T10:43:30;235.73;;;84.15;;
23310;SDS011;11828;51.508;18.118;2022-09-30T10:46:05;223.38;;;81.85;;
23310;SDS011;11828;51.508;18.118;2022-09-30T10:48:33;219.70;;;81.50;;
23310;SDS011;11828;51.508;18.118;2022-09-30T10:51:01;245.60;;;84.47;;
23310;SDS011;11828;51.508;18.118;2022-09-30T10:53:30;232.10;;;83.38;;
23310;SDS011;11828;51.508;18.118;2022-09-30T10:55:59;224.68;;;81.05;;
23310;SDS011;11828;51.508;18.118;2022-09-30T11:03:53;236.10;;;84.60;;
23310;SDS011;11828;51.508;18.118;2022-09-30T11:06:46;222.98;;;82.00;;
23310;SDS011;11828;51.508;18.118;2022-09-30T11:09:25;218.27;;;82.13;;
23310;SDS011;11828;51.508;18.118;2022-09-30T11:12:22;221.15;;;81.35;;
23310;SDS011;11828;51.508;18.118;2022-09-30T11:18:02;215.07;;;80.40;;
23310;SDS011;11828;51.508;18.118;2022-09-30T11:20:46;220.27;;;81.20;;
23310;SDS011;11828;51.508;18.118;2022-09-30T11:26:42;218.05;;;80.55;;
23310;SDS011;11828;51.508;18.118;2022-09-30T11:29:34;220.70;;;81.13;;
23310;SDS011;11828;51.508;18.118;2022-09-30T11:32:26;223.82;;;79.90;;
23310;SDS011;11828;51.508;18.118;2022-09-30T11:35:36;222.25;;;79.60;;
23310;SDS011;11828;51.508;18.118;2022-09-30T11:38:18;227.23;;;79.97;;
23310;SDS011;11828;51.508;18.118;2022-09-30T11:41:00;218.93;;;79.00;;
23310;SDS011;11828;51.508;18.118;2022-09-30T11:49:24;219.63;;;78.60;;
23310;SDS011;11828;51.508;18.118;2022-09-30T11:52:22;222.07;;;80.25;;
23310;SDS011;11828;51.508;18.118;2022-09-30T11:58:02;248.48;;;94.03;;
23310;SDS011;11828;51.508;18.118;2022-09-30T12:00:40;279.75;;;110.28;;
23310;SDS011;11828;51.508;18.118;2022-09-30T12:03:12;235.27;;;90.40;;
23310;SDS011;11828;51.508;18.118;2022-09-30T12:06:07;244.95;;;93.07;;
23310;SDS011;11828;51.508;18.118;2022-09-30T12:08:51;219.00;;;81.10;;
23310;SDS011;11828;51.508;18.118;2022-09-30T12:11:36;221.80;;;81.15;;
23310;SDS011;11828;51.508;18.118;2022-09-30T12:14:22;223.38;;;81.28;;
23310;SDS011;11828;51.508;18.118;2022-09-30T12:17:10;261.30;;;98.20;;
23310;SDS011;11828;51.508;18.118;2022-09-30T12:20:04;236.20;;;90.03;;
23310;SDS011;11828;51.508;18.118;2022-09-30T12:22:57;236.57;;;84.82;;
23310;SDS011;11828;51.508;18.118;2022-09-30T12:25:57;220.70;;;82.70;;
23310;SDS011;11828;51.508;18.118;2022-09-30T12:28:42;220.50;;;81.40;;
23310;SDS011;11828;51.508;18.118;2022-09-30T12:40:45;232.45;;;83.18;;
23310;SDS011;11828;51.508;18.118;2022-09-30T12:47:07;222.32;;;83.20;;
23310;SDS011;11828;51.508;18.118;2022-09-30T12:49:43;233.93;;;84.55;;
23310;SDS011;11828;51.508;18.118;2022-09-30T12:52:12;231.80;;;84.22;;
23310;SDS011;11828;51.508;18.118;2022-09-30T12:54:45;237.02;;;85.15;;
23310;SDS011;11828;51.508;18.118;2022-09-30T12:57:27;225.00;;;83.15;;
23310;SDS011;11828;51.508;18.118;2022-09-30T13:00:00;227.40;;;82.55;;
23310;SDS011;11828;51.508;18.118;2022-09-30T13:02:42;226.73;;;80.65;;
23310;SDS011;11828;51.508;18.118;2022-09-30T13:15:43;275.33;;;88.13;;
23310;SDS011;11828;51.508;18.118;2022-09-30T13:26:12;222.55;;;79.88;;
23310;SDS011;11828;51.508;18.118;2022-09-30T13:34:20;218.82;;;79.57;;
23310;SDS011;11828;51.508;18.118;2022-09-30T13:47:31;224.82;;;80.18;;
23310;SDS011;11828;51.508;18.118;2022-09-30T13:52:56;216.90;;;79.90;;
23310;SDS011;11828;51.508;18.118;2022-09-30T14:00:57;220.80;;;79.57;;
23310;SDS011;11828;51.508;18.118;2022-09-30T14:09:46;220.38;;;79.15;;
23310;SDS011;11828;51.508;18.118;2022-09-30T14:12:35;224.27;;;79.20;;
23310;SDS011;11828;51.508;18.118;2022-09-30T14:24:06;225.80;;;77.95;;
23310;SDS011;11828;51.508;18.118;2022-09-30T14:30:04;223.90;;;79.15;;
23310;SDS011;11828;51.508;18.118;2022-09-30T14:33:21;229.55;;;86.75;;
23310;SDS011;11828;51.508;18.118;2022-09-30T14:35:53;228.77;;;81.38;;
23310;SDS011;11828;51.508;18.118;2022-09-30T14:38:20;220.90;;;79.18;;
23310;SDS011;11828;51.508;18.118;2022-09-30T14:40:53;216.07;;;78.80;;
23310;SDS011;11828;51.508;18.118;2022-09-30T14:43:22;227.90;;;80.72;;
23310;SDS011;11828;51.508;18.118;2022-09-30T14:45:56;223.48;;;82.18;;
23310;SDS011;11828;51.508;18.118;2022-09-30T14:48:28;238.32;;;83.88;;
23310;SDS011;11828;51.508;18.118;2022-09-30T14:53:33;225.18;;;83.93;;
23310;SDS011;11828;51.508;18.118;2022-09-30T14:56:02;232.02;;;82.57;;
23310;SDS011;11828;51.508;18.118;2022-09-30T14:58:48;220.30;;;81.90;;
23310;SDS011;11828;51.508;18.118;2022-09-30T15:01:18;251.95;;;85.07;;
23310;SDS011;11828;51.508;18.118;2022-09-30T15:04:00;224.93;;;81.05;;
23310;SDS011;11828;51.508;18.118;2022-09-30T15:06:34;230.77;;;82.82;;
23310;SDS011;11828;51.508;18.118;2022-09-30T15:09:03;222.38;;;80.72;;
23310;SDS011;11828;51.508;18.118;2022-09-30T15:11:44;229.90;;;81.63;;
23310;SDS011;11828;51.508;18.118;2022-09-30T15:14:21;222.05;;;79.50;;
23310;SDS011;11828;51.508;18.118;2022-09-30T15:16:50;238.30;;;81.95;;
23310;SDS011;11828;51.508;18.118;2022-09-30T15:19:19;213.98;;;79.97;;
23310;SDS011;11828;51.508;18.118;2022-09-30T15:21:48;220.60;;;82.18;;
23310;SDS011;11828;51.508;18.118;2022-09-30T15:24:21;218.50;;;81.55;;
23310;SDS011;11828;51.508;18.118;2022-09-30T15:26:49;228.25;;;82.20;;
23310;SDS011;11828;51.508;18.118;2022-09-30T15:29:17;234.35;;;82.45;;
23310;SDS011;11828;51.508;18.118;2022-09-30T15:31:45;224.20;;;82.97;;
23310;SDS011;11828;51.508;18.118;2022-09-30T15:34:14;225.43;;;82.18;;
23310;SDS011;11828;51.508;18.118;2022-09-30T15:36:47;226.18;;;83.95;;
23310;SDS011;11828;51.508;18.118;2022-09-30T15:39:23;232.93;;;82.72;;
23310;SDS011;11828;51.508;18.118;2022-09-30T15:42:12;227.90;;;82.05;;
23310;SDS011;11828;51.508;18.118;2022-09-30T15:44:53;256.15;;;93.63;;
23310;SDS011;11828;51.508;18.118;2022-09-30T15:47:19;245.20;;;88.40;;
23310;SDS011;11828;51.508;18.118;2022-09-30T15:49:46;240.30;;;89.18;;
23310;SDS011;11828;51.508;18.118;2022-09-30T15:55:01;232.90;;;86.43;;
23310;SDS011;11828;51.508;18.118;2022-09-30T15:58:00;234.73;;;89.18;;
23310;SDS011;11828;51.508;18.118;2022-09-30T16:00:31;249.75;;;96.47;;
23310;SDS011;11828;51.508;18.118;2022-09-30T16:03:26;230.35;;;88.60;;
23310;SDS011;11828;51.508;18.118;2022-09-30T16:06:02;222.75;;;82.40;;
23310;SDS011;11828;51.508;18.118;2022-09-30T16:08:31;241.05;;;88.43;;
23310;SDS011;11828;51.508;18.118;2022-09-30T16:11:07;220.48;;;81.50;;
23310;SDS011;11828;51.508;18.118;2022-09-30T16:13:34;219.70;;;80.40;;
23310;SDS011;11828;51.508;18.118;2022-09-30T16:16:02;229.23;;;82.35;;
23310;SDS011;11828;51.508;18.118;2022-09-30T16:18:28;221.45;;;81.82;;
23310;SDS011;11828;51.508;18.118;2022-09-30T16:20:56;222.65;;;78.55;;
23310;SDS011;11828;51.508;18.118;2022-09-30T16:23:29;226.38;;;80.35;;
23310;SDS011;11828;51.508;18.118;2022-09-30T16:28:52;228.23;;;81.72;;
23310;SDS011;11828;51.508;18.118;2022-09-30T16:31:21;235.48;;;83.68;;
23310;SDS011;11828;51.508;18.118;2022-09-30T16:33:48;230.52;;;85.88;;
23310;SDS011;11828;51.508;18.118;2022-09-30T16:36:14;216.65;;;83.70;;
23310;SDS011;11828;51.508;18.118;2022-09-30T16:38:40;217.48;;;81.93;;
23310;SDS011;11828;51.508;18.118;2022-09-30T16:41:08;221.00;;;85.53;;
23310;SDS011;11828;51.508;18.118;2022-09-30T16:43:36;237.02;;;91.25;;
23310;SDS011;11828;51.508;18.118;2022-09-30T16:46:03;252.13;;;97.40;;
23310;SDS011;11828;51.508;18.118;2022-09-30T16:48:29;262.30;;;99.28;;
23310;SDS011;11828;51.508;18.118;2022-09-30T16:53:27;254.88;;;94.60;;
23310;SDS011;11828;51.508;18.118;2022-09-30T16:55:54;251.13;;;95.75;;
23310;SDS011;11828;51.508;18.118;2022-09-30T16:58:20;287.98;;;115.82;;
23310;SDS011;11828;51.508;18.118;2022-09-30T17:00:48;330.33;;;137.30;;
23310;SDS011;11828;51.508;18.118;2022-09-30T17:03:15;387.27;;;166.27;;
23310;SDS011;11828;51.508;18.118;2022-09-30T17:05:43;403.90;;;168.40;;
23310;SDS011;11828;51.508;18.118;2022-09-30T17:08:11;458.75;;;174.32;;
23310;SDS011;11828;51.508;18.118;2022-09-30T17:10:40;425.27;;;149.88;;
23310;SDS011;11828;51.508;18.118;2022-09-30T17:13:08;399.17;;;140.40;;
23310;SDS011;11828;51.508;18.118;2022-09-30T17:15:34;396.95;;;140.55;;
23310;SDS011;11828;51.508;18.118;2022-09-30T17:18:05;348.50;;;126.95;;
23310;SDS011;11828;51.508;18.118;2022-09-30T17:20:34;297.50;;;114.75;;
23310;SDS011;11828;51.508;18.118;2022-09-30T17:23:02;279.75;;;109.38;;
23310;SDS011;11828;51.508;18.118;2022-09-30T17:25:28;328.23;;;137.70;;
23310;SDS011;11828;51.508;18.118;2022-09-30T17:27:54;298.58;;;119.07;;
23310;SDS011;11828;51.508;18.118;2022-09-30T17:30:22;310.70;;;127.40;;
23310;SDS011;11828;51.508;18.118;2022-09-30T17:32:48;289.13;;;113.13;;
23310;SDS011;11828;51.508;18.118;2022-09-30T17:35:17;253.48;;;97.40;;
23310;SDS011;11828;51.508;18.118;2022-09-30T17:37:43;258.50;;;99.25;;
23310;SDS011;11828;51.508;18.118;2022-09-30T17:40:09;286.90;;;121.93;;
23310;SDS011;11828;51.508;18.118;2022-09-30T17:42:54;255.70;;;103.07;;
23310;SDS011;11828;51.508;18.118;2022-09-30T17:45:34;252.75;;;101.35;;
23310;SDS011;11828;51.508;18.118;2022-09-30T17:48:06;245.90;;;96.18;;
23310;SDS011;11828;51.508;18.118;2022-09-30T17:50:34;241.45;;;94.65;;
23310;SDS011;11828;51.508;18.118;2022-09-30T17:53:02;232.40;;;90.82;;
23310;SDS011;11828;51.508;18.118;2022-09-30T17:55:30;237.27;;;87.70;;
23310;SDS011;11828;51.508;18.118;2022-09-30T17:57:58;232.75;;;87.03;;
23310;SDS011;11828;51.508;18.118;2022-09-30T18:00:27;221.80;;;84.57;;